createdAt,value
2017-07-26T00:00:26.403Z,78.10
2017-07-26T00:02:53.328Z,78.10
2017-07-26T00:05:20.178Z,78.10
2017-07-26T00:07:47.043Z,78.10
2017-07-26T00:10:13.991Z,78.00
2017-07-26T00:12:40.840Z,77.90
2017-07-26T00:15:07.685Z,77.90
2017-07-26T00:17:34.768Z,77.90
2017-07-26T00:20:02.456Z,77.60
2017-07-26T00:22:29.329Z,77.60
2017-07-26T00:24:56.167Z,77.60
2017-07-26T00:27:23.073Z,77.50
2017-07-26T00:29:50.652Z,77.40
2017-07-26T00:32:17.596Z,77.40
2017-07-26T00:34:44.436Z,77.60
2017-07-26T00:37:11.353Z,77.00
2017-07-26T00:39:38.321Z,77.30
2017-07-26T00:42:05.987Z,77.00
2017-07-26T00:44:32.913Z,76.80
2017-07-26T00:47:00.568Z,76.50
2017-07-26T00:49:27.493Z,76.60
2017-07-26T00:51:54.347Z,76.50
2017-07-26T00:54:21.192Z,76.40
2017-07-26T00:56:48.096Z,76.00
2017-07-26T00:59:14.942Z,76.10
2017-07-26T01:01:41.883Z,75.80
2017-07-26T01:04:08.798Z,75.70
2017-07-26T01:06:36.382Z,76.20
2017-07-26T01:09:03.432Z,75.80
2017-07-26T01:11:30.283Z,75.50
2017-07-26T01:13:57.178Z,75.30
2017-07-26T01:16:24.091Z,75.20
2017-07-26T01:18:50.926Z,75.40
2017-07-26T01:21:17.852Z,75.00
2017-07-26T01:23:44.694Z,75.10
2017-07-26T01:26:11.565Z,75.80
2017-07-26T01:28:38.490Z,75.60
2017-07-26T01:31:05.352Z,75.60
2017-07-26T01:33:32.217Z,75.70
2017-07-26T01:35:59.189Z,75.60
2017-07-26T01:38:26.108Z,75.70
2017-07-26T01:40:53.012Z,75.70
2017-07-26T01:43:19.976Z,75.70
2017-07-26T01:45:46.887Z,76.10
2017-07-26T01:48:14.488Z,76.30
2017-07-26T01:50:41.413Z,76.20
2017-07-26T01:53:08.281Z,75.90
2017-07-26T01:55:35.239Z,75.80
2017-07-26T01:58:02.121Z,75.80
2017-07-26T02:00:29.792Z,76.10
2017-07-26T02:02:57.392Z,75.90
2017-07-26T02:05:24.342Z,75.80
2017-07-26T02:07:51.208Z,76.00
2017-07-26T02:10:18.063Z,76.10
2017-07-26T02:12:44.995Z,75.90
2017-07-26T02:15:11.912Z,76.20
2017-07-26T02:17:38.832Z,76.10
2017-07-26T02:20:05.666Z,76.30
2017-07-26T02:22:32.608Z,76.50
2017-07-26T02:24:59.446Z,76.30
2017-07-26T02:27:27.083Z,76.50
2017-07-26T02:29:53.992Z,76.50
2017-07-26T02:32:20.857Z,76.20
2017-07-26T02:34:47.802Z,76.10
2017-07-26T02:37:14.727Z,76.00
2017-07-26T02:39:41.590Z,76.10
2017-07-26T02:42:08.509Z,76.00
2017-07-26T02:44:35.415Z,76.10
2017-07-26T02:47:02.269Z,76.20
2017-07-26T02:49:29.202Z,76.20
2017-07-26T02:51:56.111Z,76.20
2017-07-26T02:54:23.027Z,76.40
2017-07-26T02:56:49.909Z,76.30
2017-07-26T02:59:16.837Z,76.10
2017-07-26T03:01:43.764Z,76.50
2017-07-26T03:04:11.357Z,75.70
2017-07-26T03:06:38.300Z,75.70
2017-07-26T03:09:05.172Z,75.80
2017-07-26T03:11:32.019Z,75.80
2017-07-26T03:13:58.936Z,76.10
2017-07-26T03:16:25.775Z,76.00
2017-07-26T03:18:52.648Z,76.20
2017-07-26T03:21:19.572Z,75.90
2017-07-26T03:23:46.404Z,76.10
2017-07-26T03:26:13.247Z,76.10
2017-07-26T03:28:40.167Z,76.10
2017-07-26T03:31:07.025Z,76.20
2017-07-26T03:33:34.392Z,76.20
2017-07-26T03:36:01.267Z,76.20
2017-07-26T03:38:28.114Z,76.20
2017-07-26T03:40:55.018Z,76.10
2017-07-26T03:43:22.023Z,76.00
2017-07-26T03:45:48.864Z,76.00
2017-07-26T03:48:15.706Z,76.00
2017-07-26T03:50:42.630Z,76.20
2017-07-26T03:53:09.524Z,75.90
2017-07-26T03:55:37.199Z,76.10
2017-07-26T03:58:04.821Z,75.80
2017-07-26T04:00:31.696Z,75.80
2017-07-26T04:02:58.628Z,75.80
2017-07-26T04:05:25.473Z,75.70
2017-07-26T04:07:52.312Z,75.70
2017-07-26T04:10:19.238Z,75.60
2017-07-26T04:12:46.084Z,75.90
2017-07-26T04:15:13.006Z,76.00
2017-07-26T04:17:39.859Z,76.00
2017-07-26T04:20:06.693Z,76.10
2017-07-26T04:22:33.702Z,76.00
2017-07-26T04:25:00.548Z,75.90
2017-07-26T04:27:32.169Z,75.80
2017-07-26T04:29:59.258Z,75.70
2017-07-26T04:32:26.851Z,75.80
2017-07-26T04:34:53.709Z,75.70
2017-07-26T04:37:20.665Z,75.80
2017-07-26T04:39:47.540Z,75.80
2017-07-26T04:42:14.489Z,75.80
2017-07-26T04:44:42.144Z,75.60
2017-07-26T04:47:09.011Z,75.60
2017-07-26T04:49:36.586Z,75.30
2017-07-26T04:52:03.515Z,75.30
2017-07-26T04:54:31.253Z,75.60
2017-07-26T04:56:58.075Z,75.60
2017-07-26T04:59:24.919Z,75.60
2017-07-26T05:01:51.819Z,75.50
2017-07-26T05:04:18.646Z,75.40
2017-07-26T05:06:45.592Z,75.40
2017-07-26T05:09:12.459Z,75.50
2017-07-26T05:11:39.328Z,75.40
2017-07-26T05:14:06.325Z,75.30
2017-07-26T05:16:33.175Z,75.40
2017-07-26T05:19:00.019Z,75.10
2017-07-26T05:21:26.979Z,75.40
2017-07-26T05:23:54.571Z,75.30
2017-07-26T05:26:21.480Z,75.30
2017-07-26T05:28:49.132Z,75.40
2017-07-26T05:31:16.044Z,75.40
2017-07-26T05:33:42.918Z,75.10
2017-07-26T05:36:09.782Z,75.10
2017-07-26T05:38:37.447Z,75.00
2017-07-26T05:41:04.307Z,75.00
2017-07-26T05:43:31.158Z,74.80
2017-07-26T05:45:58.059Z,74.80
2017-07-26T05:48:24.979Z,75.10
2017-07-26T05:50:51.928Z,75.20
2017-07-26T05:53:18.776Z,75.40
2017-07-26T05:55:45.718Z,75.10
2017-07-26T05:58:12.643Z,75.10
2017-07-26T06:00:39.515Z,75.10
2017-07-26T06:03:06.375Z,75.00
2017-07-26T06:05:33.329Z,75.20
2017-07-26T06:08:01.272Z,75.10
2017-07-26T06:10:28.212Z,75.10
2017-07-26T06:12:55.084Z,75.30
2017-07-26T06:15:22.723Z,75.70
2017-07-26T06:17:49.678Z,75.50
2017-07-26T06:20:21.168Z,75.10
2017-07-26T06:22:48.132Z,75.10
2017-07-26T06:25:16.322Z,75.20
2017-07-26T06:27:43.904Z,75.00
2017-07-26T06:30:11.869Z,74.90
2017-07-26T06:32:38.699Z,74.90
2017-07-26T06:35:05.623Z,74.90
2017-07-26T06:37:32.546Z,74.90
2017-07-26T06:39:59.409Z,74.30
2017-07-26T06:42:26.237Z,74.30
2017-07-26T06:44:53.982Z,74.50
2017-07-26T06:47:20.852Z,74.50
2017-07-26T06:49:47.730Z,74.50
2017-07-26T06:52:14.659Z,74.50
2017-07-26T06:54:41.580Z,74.80
2017-07-26T06:57:08.418Z,74.90
2017-07-26T06:59:35.256Z,74.90
2017-07-26T07:02:02.279Z,74.90
2017-07-26T07:04:39.185Z,75.00
2017-07-26T07:07:13.974Z,75.10
2017-07-26T07:09:46.222Z,75.20
2017-07-26T07:12:24.581Z,75.20
2017-07-26T07:14:55.853Z,75.40
2017-07-26T07:17:24.476Z,75.80
2017-07-26T07:19:54.058Z,76.00
2017-07-26T07:22:23.323Z,75.80
2017-07-26T07:24:55.287Z,75.80
2017-07-26T07:27:30.789Z,75.60
2017-07-26T07:30:05.089Z,75.90
2017-07-26T07:32:36.845Z,75.90
2017-07-26T07:35:08.256Z,75.70
2017-07-26T07:37:35.388Z,75.70
2017-07-26T07:40:12.959Z,76.00
2017-07-26T07:42:47.086Z,76.10
2017-07-26T07:45:15.540Z,75.90
2017-07-26T07:50:26.232Z,76.30
2017-07-26T07:53:03.995Z,76.10
2017-07-26T07:55:31.006Z,75.90
2017-07-26T07:58:03.198Z,76.10
2017-07-26T08:00:40.181Z,76.00
2017-07-26T08:03:07.162Z,75.60
2017-07-26T08:05:45.761Z,75.20
2017-07-26T08:08:13.506Z,74.90
2017-07-26T08:10:45.728Z,74.90
2017-07-26T08:13:14.222Z,74.80
2017-07-26T08:15:50.401Z,74.40
2017-07-26T08:18:21.304Z,74.50
2017-07-26T08:20:48.992Z,73.50
2017-07-26T08:23:23.580Z,73.50
2017-07-26T08:25:53.857Z,73.30
2017-07-26T08:28:24.643Z,73.20
2017-07-26T08:31:04.735Z,73.10
2017-07-26T08:33:33.910Z,73.10
2017-07-26T08:36:03.889Z,72.80
2017-07-26T08:38:33.259Z,72.80
2017-07-26T08:41:04.657Z,72.80
2017-07-26T08:43:35.969Z,72.70
2017-07-26T08:46:03.384Z,72.30
2017-07-26T08:48:31.087Z,72.10
2017-07-26T08:51:03.509Z,72.10
2017-07-26T08:53:33.428Z,72.50
2017-07-26T08:56:00.474Z,71.90
2017-07-26T08:58:35.821Z,72.10
2017-07-26T09:01:14.125Z,71.40
2017-07-26T09:03:45.405Z,71.70
2017-07-26T09:06:20.699Z,72.20
2017-07-26T09:08:51.140Z,72.00
2017-07-26T09:11:18.599Z,71.80
2017-07-26T09:13:47.405Z,71.90
2017-07-26T09:16:14.465Z,72.00
2017-07-26T09:18:42.572Z,71.40
2017-07-26T09:21:09.436Z,70.90
2017-07-26T09:23:43.494Z,70.80
2017-07-26T09:26:16.774Z,70.80
2017-07-26T09:28:48.590Z,71.00
2017-07-26T09:31:15.599Z,69.70
2017-07-26T09:33:49.745Z,69.60
2017-07-26T09:36:18.630Z,69.50
2017-07-26T09:38:47.741Z,69.20
2017-07-26T09:41:19.735Z,68.90
2017-07-26T09:43:57.086Z,68.10
2017-07-26T09:46:24.940Z,67.30
2017-07-26T09:48:59.990Z,67.10
2017-07-26T09:51:27.245Z,68.20
2017-07-26T09:54:11.246Z,68.20
2017-07-26T09:56:50.991Z,68.70
2017-07-26T09:59:30.675Z,68.70
2017-07-26T10:02:09.997Z,68.10
2017-07-26T10:04:39.632Z,68.00
2017-07-26T10:07:16.506Z,68.10
2017-07-26T10:09:58.303Z,67.30
2017-07-26T10:12:27.842Z,66.50
2017-07-26T10:15:05.369Z,66.40
2017-07-26T10:17:46.013Z,66.30
2017-07-26T10:20:24.354Z,66.30
2017-07-26T10:22:56.954Z,66.40
2017-07-26T10:25:25.373Z,66.60
2017-07-26T10:27:53.248Z,66.70
2017-07-26T10:30:21.559Z,66.10
2017-07-26T10:32:53.962Z,66.30
2017-07-26T10:35:28.096Z,66.30
2017-07-26T10:38:08.630Z,66.10
2017-07-26T10:40:51.905Z,64.90
2017-07-26T10:43:20.363Z,64.90
2017-07-26T10:46:03.127Z,64.80
2017-07-26T10:48:41.587Z,64.20
2017-07-26T10:51:09.731Z,64.20
2017-07-26T10:53:43.120Z,63.10
2017-07-26T10:56:19.048Z,63.10
2017-07-26T10:58:47.704Z,63.00
2017-07-26T11:01:17.716Z,62.10
2017-07-26T11:03:58.421Z,61.60
2017-07-26T11:06:37.184Z,60.60
2017-07-26T11:09:15.015Z,61.00
2017-07-26T11:11:42.501Z,58.80
2017-07-26T11:14:09.361Z,57.40
2017-07-26T11:16:41.594Z,56.70
2017-07-26T11:24:37.956Z,54.90
2017-07-26T11:27:04.847Z,54.90
2017-07-26T11:29:31.753Z,54.90
2017-07-26T11:31:58.739Z,55.60
2017-07-26T11:34:25.744Z,55.80
2017-07-26T11:39:50.013Z,51.60
2017-07-26T11:42:32.247Z,51.60
2017-07-26T11:45:15.110Z,49.00
2017-07-26T11:47:42.907Z,48.90
2017-07-26T11:50:24.194Z,48.90
2017-07-26T11:52:54.962Z,48.50
2017-07-26T11:55:35.714Z,48.40
2017-07-26T11:58:13.291Z,47.90
2017-07-26T12:00:41.137Z,47.90
2017-07-26T12:03:16.787Z,48.70
2017-07-26T12:08:38.544Z,47.70
2017-07-26T12:11:22.750Z,48.00
2017-07-26T12:14:10.428Z,47.10
2017-07-26T12:16:50.656Z,44.30
2017-07-26T12:24:58.203Z,47.70
2017-07-26T12:27:27.623Z,47.50
2017-07-26T12:30:09.066Z,48.00
2017-07-26T12:32:37.395Z,45.20
2017-07-26T12:35:09.933Z,45.20
2017-07-26T12:37:40.426Z,45.30
2017-07-26T12:40:27.027Z,43.40
2017-07-26T12:43:04.561Z,43.40
2017-07-26T12:45:46.361Z,43.50
2017-07-26T12:48:20.947Z,42.90
2017-07-26T12:51:02.511Z,43.20
2017-07-26T12:59:11.206Z,42.40
2017-07-26T13:01:43.078Z,42.80
2017-07-26T13:04:12.540Z,43.60
2017-07-26T13:06:41.924Z,43.20
2017-07-26T13:09:12.157Z,43.60
2017-07-26T13:11:54.890Z,42.60
2017-07-26T13:14:28.355Z,42.60
2017-07-26T13:17:04.589Z,41.30
2017-07-26T13:19:38.240Z,40.50
2017-07-26T13:22:09.335Z,39.60
2017-07-26T13:24:36.480Z,39.70
2017-07-26T13:27:03.655Z,40.00
2017-07-26T13:29:32.963Z,40.50
2017-07-26T13:32:00.148Z,40.40
2017-07-26T13:34:29.713Z,39.70
2017-07-26T13:36:58.777Z,39.10
2017-07-26T13:39:38.250Z,39.10
2017-07-26T13:42:09.837Z,39.10
2017-07-26T13:47:21.039Z,37.50
2017-07-26T13:50:00.251Z,37.40
2017-07-26T13:52:47.029Z,39.70
2017-07-26T13:55:16.707Z,39.10
2017-07-26T13:57:45.899Z,36.60
2017-07-26T14:00:21.526Z,36.60
2017-07-26T14:02:49.365Z,38.60
2017-07-26T14:05:19.540Z,37.10
2017-07-26T14:07:53.426Z,37.60
2017-07-26T14:10:32.346Z,38.70
2017-07-26T14:13:02.208Z,39.00
2017-07-26T14:15:33.143Z,40.10
2017-07-26T14:18:13.038Z,41.40
2017-07-26T14:20:43.720Z,42.70
2017-07-26T14:23:12.331Z,43.20
2017-07-26T14:25:51.913Z,42.50
2017-07-26T14:28:19.400Z,42.30
2017-07-26T14:30:51.477Z,42.30
2017-07-26T14:33:36.916Z,42.50
2017-07-26T14:36:15.052Z,42.00
2017-07-26T14:38:42.352Z,43.00
2017-07-26T14:41:16.038Z,42.80
2017-07-26T14:43:47.590Z,42.60
2017-07-26T14:46:20.828Z,42.40
2017-07-26T14:49:01.549Z,42.30
2017-07-26T14:51:29.524Z,43.20
2017-07-26T14:53:57.222Z,41.80
2017-07-26T14:56:29.926Z,41.80
2017-07-26T14:59:00.622Z,40.10
2017-07-26T15:01:27.496Z,40.50
2017-07-26T15:04:00.487Z,40.00
2017-07-26T15:06:28.993Z,38.90
2017-07-26T15:08:57.914Z,40.30
2017-07-26T15:11:24.775Z,40.20
2017-07-26T15:13:51.690Z,40.40
2017-07-26T15:16:19.261Z,42.00
2017-07-26T15:18:46.839Z,40.90
2017-07-26T15:21:13.845Z,40.90
2017-07-26T15:23:40.716Z,42.00
2017-07-26T15:26:08.305Z,40.00
2017-07-26T15:28:35.252Z,40.00
2017-07-26T15:31:02.258Z,38.40
2017-07-26T15:33:29.876Z,40.40
2017-07-26T15:35:56.799Z,40.30
2017-07-26T15:38:23.818Z,38.40
2017-07-26T15:40:50.784Z,38.10
2017-07-26T15:43:17.771Z,38.90
2017-07-26T15:45:44.643Z,39.50
2017-07-26T15:48:12.234Z,39.60
2017-07-26T15:50:39.179Z,39.60
2017-07-26T15:53:06.041Z,40.40
2017-07-26T15:55:33.006Z,39.80
2017-07-26T15:57:59.971Z,39.40
2017-07-26T16:00:26.833Z,39.90
2017-07-26T16:02:53.839Z,40.00
2017-07-26T16:05:20.717Z,39.90
2017-07-26T16:07:47.561Z,40.50
2017-07-26T16:10:14.470Z,41.00
2017-07-26T16:12:41.410Z,40.80
2017-07-26T16:15:19.711Z,40.50
2017-07-26T16:17:58.692Z,40.40
2017-07-26T16:20:42.035Z,40.30
2017-07-26T16:23:09.942Z,39.50
2017-07-26T16:25:36.908Z,39.00
2017-07-26T16:28:03.796Z,38.70
2017-07-26T16:30:30.722Z,37.20
2017-07-26T16:32:57.666Z,38.40
2017-07-26T16:35:24.633Z,38.40
2017-07-26T16:37:51.489Z,39.00
2017-07-26T16:40:19.092Z,39.20
2017-07-26T16:42:46.020Z,39.10
2017-07-26T16:45:12.930Z,39.40
2017-07-26T16:47:39.775Z,40.10
2017-07-26T16:50:06.728Z,39.60
2017-07-26T16:52:33.660Z,39.80
2017-07-26T16:55:00.591Z,40.10
2017-07-26T16:57:27.426Z,40.20
2017-07-26T16:59:54.288Z,40.60
2017-07-26T17:02:21.319Z,41.50
2017-07-26T17:04:48.215Z,41.50
2017-07-26T17:07:15.806Z,42.00
2017-07-26T17:09:42.733Z,41.90
2017-07-26T17:12:09.678Z,42.20
2017-07-26T17:14:36.596Z,42.00
2017-07-26T17:17:03.513Z,42.80
2017-07-26T17:19:32.455Z,42.70
2017-07-26T17:21:59.768Z,42.90
2017-07-26T17:27:25.774Z,43.20
2017-07-26T17:29:52.724Z,43.70
2017-07-26T17:32:19.703Z,43.80
2017-07-26T17:34:51.940Z,43.10
2017-07-26T17:37:19.413Z,43.40
2017-07-26T17:39:46.711Z,43.70
2017-07-26T17:42:13.563Z,44.10
2017-07-26T17:44:43.219Z,43.90
2017-07-26T17:47:10.284Z,43.80
2017-07-26T17:49:37.140Z,44.50
2017-07-26T17:52:06.670Z,44.90
2017-07-26T17:54:36.377Z,44.10
2017-07-26T17:57:03.471Z,44.50
2017-07-26T17:59:33.495Z,45.20
2017-07-26T18:02:01.049Z,44.90
2017-07-26T18:04:40.107Z,45.30
2017-07-26T18:07:12.412Z,46.50
2017-07-26T18:09:46.612Z,47.00
2017-07-26T18:12:22.800Z,46.70
2017-07-26T18:14:56.584Z,48.10
2017-07-26T18:17:31.931Z,48.30
2017-07-26T18:19:59.265Z,49.70
2017-07-26T18:22:27.732Z,50.70
2017-07-26T18:24:55.135Z,52.50
2017-07-26T18:27:22.764Z,54.70
2017-07-26T18:29:52.095Z,54.50
2017-07-26T18:32:25.358Z,55.60
2017-07-26T18:34:56.403Z,56.00
2017-07-26T18:37:28.054Z,58.20
2017-07-26T18:40:06.419Z,58.50
2017-07-26T18:42:44.620Z,58.70
2017-07-26T18:45:12.540Z,59.40
2017-07-26T18:47:41.862Z,59.40
2017-07-26T18:50:09.598Z,59.00
2017-07-26T18:52:43.018Z,61.40
2017-07-26T18:55:16.972Z,62.10
2017-07-26T18:57:51.711Z,62.50
2017-07-26T19:00:26.061Z,62.50
2017-07-26T19:03:00.272Z,62.90
2017-07-26T19:05:30.707Z,63.10
2017-07-26T19:07:58.695Z,62.90
2017-07-26T19:10:31.422Z,62.90
2017-07-26T19:13:06.649Z,63.50
2017-07-26T19:15:34.448Z,63.50
2017-07-26T19:18:05.295Z,63.60
2017-07-26T19:20:39.224Z,64.50
2017-07-26T19:23:09.252Z,64.80
2017-07-26T19:25:43.445Z,65.50
2017-07-26T19:28:17.320Z,65.40
2017-07-26T19:30:47.275Z,65.10
2017-07-26T19:33:14.322Z,65.90
2017-07-26T19:35:41.200Z,66.00
2017-07-26T19:38:09.408Z,66.40
2017-07-26T19:40:38.262Z,66.70
2017-07-26T19:43:07.638Z,67.10
2017-07-26T19:45:35.981Z,66.90
2017-07-26T19:48:04.158Z,67.30
2017-07-26T19:50:37.652Z,67.00
2017-07-26T19:53:07.639Z,67.00
2017-07-26T19:55:39.461Z,67.70
2017-07-26T19:58:12.026Z,67.50
2017-07-26T20:00:39.847Z,67.20
2017-07-26T20:03:06.784Z,67.20
2017-07-26T20:05:33.681Z,67.00
2017-07-26T20:08:00.624Z,67.60
2017-07-26T20:10:28.487Z,67.60
2017-07-26T20:12:55.384Z,67.60
2017-07-26T20:15:27.879Z,67.80
2017-07-26T20:17:56.420Z,67.60
2017-07-26T20:20:25.270Z,67.80
2017-07-26T20:22:53.982Z,67.20
2017-07-26T20:25:22.539Z,67.50
2017-07-26T20:27:51.642Z,67.50
2017-07-26T20:30:23.362Z,67.70
2017-07-26T20:32:58.265Z,68.20
2017-07-26T20:35:27.064Z,68.20
2017-07-26T20:37:55.055Z,68.40
2017-07-26T20:40:24.033Z,68.00
2017-07-26T20:42:52.294Z,68.10
2017-07-26T20:45:21.610Z,68.10
2017-07-26T20:47:50.187Z,67.90
2017-07-26T20:50:26.073Z,68.60
2017-07-26T20:52:54.668Z,68.00
2017-07-26T20:55:24.505Z,68.20
2017-07-26T20:57:53.068Z,68.30
2017-07-26T21:00:24.781Z,68.30
2017-07-26T21:02:57.807Z,68.30
2017-07-26T21:05:26.247Z,68.50
2017-07-26T21:08:03.688Z,68.10
2017-07-26T21:10:43.717Z,68.10
2017-07-26T21:13:24.160Z,68.30
2017-07-26T21:16:02.635Z,68.40
2017-07-26T21:18:31.550Z,68.80
2017-07-26T21:21:00.850Z,68.80
2017-07-26T21:23:33.850Z,69.10
2017-07-26T21:26:05.193Z,68.70
2017-07-26T21:28:40.931Z,69.00
2017-07-26T21:31:13.415Z,69.10
2017-07-26T21:33:44.798Z,69.30
2017-07-26T21:36:13.899Z,69.10
2017-07-26T21:38:44.549Z,68.90
2017-07-26T21:41:13.268Z,68.60
2017-07-26T21:43:45.376Z,68.40
2017-07-26T21:46:23.761Z,68.20
2017-07-26T21:48:53.164Z,69.00
2017-07-26T21:51:21.938Z,69.10
2017-07-26T21:53:51.645Z,69.00
2017-07-26T21:56:20.872Z,68.90
2017-07-26T21:58:51.428Z,69.90
2017-07-26T22:01:19.813Z,69.90
2017-07-26T22:03:47.844Z,69.80
2017-07-26T22:06:17.083Z,69.70
2017-07-26T22:08:46.522Z,69.80
2017-07-26T22:11:14.025Z,69.80
2017-07-26T22:13:42.919Z,69.40
2017-07-26T22:16:11.337Z,69.10
2017-07-26T22:18:38.209Z,69.80
2017-07-26T22:21:05.155Z,70.30
2017-07-26T22:23:31.987Z,69.40
2017-07-26T22:25:58.875Z,69.80
2017-07-26T22:28:26.537Z,70.00
2017-07-26T22:30:54.216Z,69.80
2017-07-26T22:33:21.156Z,69.80
2017-07-26T22:35:48.825Z,69.60
2017-07-26T22:38:15.832Z,69.50
2017-07-26T22:40:42.739Z,69.70
2017-07-26T22:43:09.601Z,69.60
2017-07-26T22:45:36.560Z,69.30
2017-07-26T22:48:03.431Z,68.80
2017-07-26T22:50:31.077Z,69.40
2017-07-26T22:52:58.029Z,69.40
2017-07-26T22:55:24.910Z,69.40
2017-07-26T22:57:51.771Z,69.60
2017-07-26T23:00:18.777Z,69.60
2017-07-26T23:02:46.366Z,70.00
2017-07-26T23:05:13.256Z,69.40
2017-07-26T23:07:40.171Z,69.40
2017-07-26T23:10:07.060Z,68.90
2017-07-26T23:12:33.945Z,68.80
2017-07-26T23:15:00.880Z,68.90
2017-07-26T23:17:27.729Z,68.20
2017-07-26T23:19:54.577Z,68.40
2017-07-26T23:22:21.494Z,68.90
2017-07-26T23:24:48.355Z,68.80
2017-07-26T23:27:16.031Z,68.70
2017-07-26T23:29:42.895Z,68.60
2017-07-26T23:32:09.759Z,68.30
2017-07-26T23:34:36.704Z,68.70
2017-07-26T23:37:03.559Z,68.50
2017-07-26T23:39:30.422Z,68.60
2017-07-26T23:41:57.339Z,68.00
2017-07-26T23:44:24.183Z,68.20
2017-07-26T23:46:51.127Z,68.20
2017-07-26T23:49:17.944Z,68.70
2017-07-26T23:51:44.794Z,68.30
2017-07-26T23:54:11.728Z,68.20
2017-07-26T23:56:38.703Z,68.80
2017-07-26T23:59:05.555Z,68.70
